createdAt,value
2022-08-30T00:01:07.369Z,85.26
2022-08-30T00:02:56.417Z,85.25
2022-08-30T00:04:31.740Z,85.13
2022-08-30T00:06:14.163Z,85.20
2022-08-30T00:07:49.644Z,84.86
2022-08-30T00:10:57.632Z,84.96
2022-08-30T00:14:05.408Z,85.24
2022-08-30T00:15:44.191Z,84.92
2022-08-30T00:17:05.308Z,84.65
2022-08-30T00:18:31.527Z,84.76
2022-08-30T00:19:47.914Z,84.80
2022-08-30T00:21:14.083Z,85.25
2022-08-30T00:22:20.075Z,84.96
2022-08-30T00:23:29.877Z,85.02
2022-08-30T00:24:46.222Z,85.36
2022-08-30T00:25:52.628Z,85.61
2022-08-30T00:26:57.142Z,85.48
2022-08-30T00:28:03.258Z,85.73
2022-08-30T00:29:18.107Z,86.04
2022-08-30T00:30:49.763Z,85.66
2022-08-30T00:31:56.019Z,85.39
2022-08-30T00:33:07.161Z,85.58
2022-08-30T00:34:59.916Z,85.78
2022-08-30T00:36:11.668Z,85.62
2022-08-30T00:37:21.561Z,85.49
2022-08-30T00:38:26.153Z,85.25
2022-08-30T00:39:31.706Z,85.78
2022-08-30T00:40:38.555Z,86.10
2022-08-30T00:41:45.343Z,86.18
2022-08-30T00:42:54.544Z,85.99
2022-08-30T00:44:02.790Z,86.52
2022-08-30T00:45:13.805Z,86.63
2022-08-30T00:46:24.815Z,86.51
2022-08-30T00:48:16.775Z,86.80
2022-08-30T00:49:26.982Z,86.28
2022-08-30T00:50:47.009Z,86.47
2022-08-30T00:52:57.145Z,86.62
2022-08-30T00:54:34.391Z,86.46
2022-08-30T00:56:23.993Z,86.54
2022-08-30T00:59:23.803Z,86.80
2022-08-30T01:09:16.137Z,86.02
2022-08-30T01:10:24.967Z,85.80
2022-08-30T01:13:09.270Z,86.46
2022-08-30T01:14:17.738Z,86.50
2022-08-30T01:15:27.134Z,86.24
2022-08-30T01:17:02.837Z,86.29
2022-08-30T01:18:13.249Z,86.51
2022-08-30T01:22:46.585Z,86.23
2022-08-30T01:26:51.569Z,86.75
2022-08-30T01:29:14.324Z,86.88
2022-08-30T01:44:22.567Z,86.61
2022-08-30T01:46:00.351Z,86.82
2022-08-30T01:50:12.830Z,87.32
2022-08-30T01:50:42.172Z,86.18
2022-08-30T01:51:50.453Z,86.49
2022-08-30T01:53:13.263Z,86.82
2022-08-30T01:55:28.308Z,86.33
2022-08-30T01:57:07.724Z,86.70
2022-08-30T01:58:40.600Z,86.58
2022-08-30T02:00:05.330Z,86.67
2022-08-30T02:03:08.033Z,85.96
2022-08-30T02:04:15.023Z,86.23
2022-08-30T02:05:23.998Z,86.82
2022-08-30T02:06:39.718Z,87.06
2022-08-30T02:08:01.787Z,87.16
2022-08-30T02:09:07.493Z,86.95
2022-08-30T02:10:43.285Z,87.00
2022-08-30T02:12:18.903Z,86.58
2022-08-30T02:13:58.740Z,86.97
2022-08-30T02:15:14.145Z,86.78
2022-08-30T02:16:33.103Z,87.38
2022-08-30T02:17:48.339Z,87.23
2022-08-30T02:18:57.808Z,87.45
2022-08-30T02:20:03.446Z,87.30
2022-08-30T02:21:31.865Z,86.79
2022-08-30T02:23:06.221Z,86.81
2022-08-30T02:24:20.657Z,87.49
2022-08-30T02:25:30.619Z,87.34
2022-08-30T02:26:37.235Z,87.37
2022-08-30T02:27:44.397Z,86.86
2022-08-30T02:29:07.454Z,86.63
2022-08-30T02:30:18.477Z,86.93
2022-08-30T02:31:27.077Z,86.98
2022-08-30T02:32:32.595Z,86.87
2022-08-30T02:33:36.976Z,87.42
2022-08-30T02:34:49.348Z,87.71
2022-08-30T02:35:59.237Z,87.67
2022-08-30T02:40:01.093Z,87.76
2022-08-30T02:41:11.780Z,87.52
2022-08-30T02:44:39.916Z,87.83
2022-08-30T02:50:01.882Z,87.02
2022-08-30T02:51:14.411Z,86.81
2022-08-30T02:52:27.503Z,86.84
2022-08-30T02:53:32.147Z,87.44
2022-08-30T02:54:37.829Z,87.19
2022-08-30T02:55:52.344Z,87.64
2022-08-30T02:56:58.045Z,87.62
2022-08-30T02:58:03.402Z,88.24
2022-08-30T02:59:19.466Z,88.03
2022-08-30T03:00:33.950Z,88.73
2022-08-30T03:01:39.734Z,88.40
2022-08-30T03:02:47.414Z,88.58
2022-08-30T03:03:51.453Z,88.66
2022-08-30T03:04:59.724Z,88.29
2022-08-30T03:06:07.176Z,88.35
2022-08-30T03:07:12.914Z,88.85
2022-08-30T03:08:17.342Z,88.64
2022-08-30T03:09:22.589Z,88.43
2022-08-30T03:10:27.997Z,88.53
2022-08-30T03:11:38.720Z,88.99
2022-08-30T03:12:42.915Z,88.57
2022-08-30T03:13:47.985Z,88.58
2022-08-30T03:14:53.046Z,88.60
2022-08-30T03:15:57.030Z,88.89
2022-08-30T03:17:03.028Z,89.20
2022-08-30T03:18:07.394Z,89.51
2022-08-30T03:19:12.397Z,89.26
2022-08-30T03:20:15.891Z,88.74
2022-08-30T03:21:22.043Z,88.83
2022-08-30T03:22:25.677Z,88.29
2022-08-30T03:23:30.597Z,88.46
2022-08-30T03:24:34.211Z,88.64
2022-08-30T03:25:39.685Z,88.75
2022-08-30T03:26:46.780Z,88.09
2022-08-30T03:27:52.178Z,88.56
2022-08-30T03:28:55.666Z,88.72
2022-08-30T03:30:00.555Z,88.31
2022-08-30T03:31:04.547Z,88.67
2022-08-30T03:32:13.262Z,88.46
2022-08-30T03:33:18.133Z,87.70
2022-08-30T03:34:24.576Z,87.83
2022-08-30T03:35:28.539Z,87.96
2022-08-30T03:36:38.529Z,88.38
2022-08-30T03:37:42.213Z,88.20
2022-08-30T03:38:55.586Z,88.01
2022-08-30T03:40:10.071Z,88.49
2022-08-30T03:41:15.637Z,87.92
2022-08-30T03:42:19.580Z,87.54
2022-08-30T03:43:28.657Z,87.49
2022-08-30T03:44:42.719Z,87.71
2022-08-30T03:45:46.857Z,87.88
2022-08-30T03:46:59.682Z,87.52
2022-08-30T03:48:05.493Z,87.92
2022-08-30T03:49:10.146Z,88.38
2022-08-30T03:50:14.968Z,88.31
2022-08-30T03:51:26.174Z,87.89
2022-08-30T03:52:36.399Z,88.22
2022-08-30T03:53:40.227Z,87.96
2022-08-30T03:54:47.922Z,87.61
2022-08-30T03:55:51.903Z,87.61
2022-08-30T03:56:57.837Z,87.71
2022-08-30T03:58:01.787Z,87.92
2022-08-30T03:59:06.515Z,88.35
2022-08-30T04:00:11.598Z,88.16
2022-08-30T04:01:16.083Z,88.13
2022-08-30T04:02:19.484Z,88.06
2022-08-30T04:03:28.248Z,87.72
2022-08-30T04:04:32.658Z,87.75
2022-08-30T04:05:37.629Z,87.87
2022-08-30T04:06:41.536Z,88.32
2022-08-30T04:07:46.217Z,88.75
2022-08-30T04:08:51.530Z,88.91
2022-08-30T04:09:55.180Z,89.32
2022-08-30T04:11:01.428Z,89.28
2022-08-30T04:12:05.779Z,88.71
2022-08-30T04:13:10.607Z,88.98
2022-08-30T04:14:14.250Z,88.87
2022-08-30T04:15:19.678Z,89.34
2022-08-30T04:16:23.542Z,89.39
2022-08-30T04:17:28.812Z,88.87
2022-08-30T04:18:35.139Z,89.12
2022-08-30T04:19:40.086Z,89.18
2022-08-30T04:20:43.932Z,89.14
2022-08-30T04:21:48.807Z,89.30
2022-08-30T04:23:17.686Z,89.73
2022-08-30T04:24:26.135Z,89.79
2022-08-30T04:25:29.806Z,89.69
2022-08-30T04:26:35.567Z,89.67
2022-08-30T04:27:39.289Z,90.03
2022-08-30T04:28:43.998Z,89.82
2022-08-30T04:29:48.148Z,89.44
2022-08-30T04:30:52.697Z,89.48
2022-08-30T04:31:56.436Z,89.70
2022-08-30T04:33:01.817Z,89.61
2022-08-30T04:34:07.504Z,89.61
2022-08-30T04:35:12.757Z,89.86
2022-08-30T04:36:16.697Z,89.51
2022-08-30T04:37:21.487Z,89.90
2022-08-30T04:38:29.884Z,89.68
2022-08-30T04:39:35.409Z,90.11
2022-08-30T04:40:39.331Z,90.25
2022-08-30T04:41:47.914Z,90.36
2022-08-30T04:43:02.077Z,90.19
2022-08-30T04:44:14.248Z,90.16
2022-08-30T04:45:27.860Z,90.22
2022-08-30T04:46:32.266Z,90.25
2022-08-30T04:47:43.075Z,90.36
2022-08-30T04:49:11.005Z,90.42
2022-08-30T04:50:19.921Z,90.58
2022-08-30T04:51:29.338Z,90.80
2022-08-30T04:52:33.618Z,91.04
2022-08-30T04:53:41.962Z,91.29
2022-08-30T04:54:46.628Z,91.45
2022-08-30T04:55:52.429Z,91.34
2022-08-30T04:56:56.486Z,91.25
2022-08-30T04:58:01.551Z,91.65
2022-08-30T04:59:08.496Z,91.73
2022-08-30T05:00:15.118Z,91.86
2022-08-30T05:01:21.855Z,92.15
2022-08-30T05:02:29.110Z,92.63
2022-08-30T05:03:33.443Z,92.43
2022-08-30T05:05:00.325Z,92.42
2022-08-30T05:06:03.883Z,92.44
2022-08-30T05:07:08.927Z,92.88
2022-08-30T05:08:14.777Z,93.01
2022-08-30T05:09:21.888Z,93.05
2022-08-30T05:10:27.791Z,93.54
2022-08-30T05:11:33.150Z,93.70
2022-08-30T05:12:37.648Z,93.58
2022-08-30T05:13:42.659Z,94.03
2022-08-30T05:14:53.354Z,94.60
2022-08-30T05:15:59.524Z,94.65
2022-08-30T05:17:34.558Z,94.19
2022-08-30T05:18:39.808Z,94.56
2022-08-30T05:19:45.609Z,94.66
2022-08-30T05:21:13.598Z,94.56
2022-08-30T05:22:21.145Z,95.10
2022-08-30T05:23:26.783Z,94.93
2022-08-30T05:24:32.467Z,95.77
2022-08-30T05:25:44.179Z,95.84
2022-08-30T05:26:51.221Z,96.52
2022-08-30T05:27:56.490Z,96.77
2022-08-30T05:29:01.143Z,97.12
2022-08-30T05:30:10.460Z,97.71
2022-08-30T05:31:17.452Z,98.11
2022-08-30T05:32:22.446Z,98.73
2022-08-30T05:33:27.786Z,98.24
2022-08-30T05:34:35.189Z,98.62
2022-08-30T05:35:41.186Z,99.87
2022-08-30T05:36:46.326Z,100.00
2022-08-30T05:37:51.357Z,100.00
2022-08-30T05:38:57.985Z,99.46
2022-08-30T05:40:02.475Z,99.27
2022-08-30T05:41:10.790Z,99.32
2022-08-30T05:42:16.873Z,99.50
2022-08-30T05:43:21.756Z,99.46
2022-08-30T05:44:30.372Z,99.36
2022-08-30T05:45:34.980Z,98.97
2022-08-30T05:46:43.417Z,98.89
2022-08-30T05:47:48.163Z,98.63
2022-08-30T05:48:54.905Z,98.22
2022-08-30T05:49:58.554Z,98.16
2022-08-30T05:51:06.708Z,97.78
2022-08-30T05:52:10.490Z,97.34
2022-08-30T05:53:17.384Z,96.90
2022-08-30T05:54:24.834Z,96.83
2022-08-30T05:55:29.725Z,97.04
2022-08-30T05:56:35.510Z,96.40
2022-08-30T05:57:42.728Z,95.36
2022-08-30T05:58:46.279Z,94.56
2022-08-30T06:02:22.637Z,92.50
2022-08-30T06:03:27.141Z,92.59
2022-08-30T06:04:32.390Z,91.89
2022-08-30T06:07:10.536Z,90.64
2022-08-30T06:08:18.194Z,89.65
2022-08-30T06:09:22.727Z,89.33
2022-08-30T06:10:33.722Z,89.50
2022-08-30T06:11:37.369Z,88.97
2022-08-30T06:12:49.553Z,88.46
2022-08-30T06:13:54.663Z,88.26
2022-08-30T06:14:59.538Z,87.57
2022-08-30T06:16:03.401Z,87.23
2022-08-30T06:17:08.205Z,86.44
2022-08-30T06:18:12.260Z,86.01
2022-08-30T06:19:17.698Z,85.54
2022-08-30T06:20:21.013Z,85.31
2022-08-30T06:21:26.668Z,85.43
2022-08-30T06:22:32.653Z,85.38
2022-08-30T06:23:52.377Z,84.80
2022-08-30T06:24:58.007Z,84.57
2022-08-30T06:26:05.847Z,84.01
2022-08-30T06:27:11.747Z,84.40
2022-08-30T06:28:15.513Z,83.76
2022-08-30T06:29:21.532Z,83.07
2022-08-30T06:30:26.073Z,82.74
2022-08-30T06:31:29.399Z,81.92
2022-08-30T06:32:33.784Z,81.61
2022-08-30T06:33:37.816Z,81.49
2022-08-30T06:34:42.215Z,80.73
2022-08-30T06:35:58.575Z,80.55
2022-08-30T06:37:03.920Z,80.87
2022-08-30T06:38:08.522Z,80.28
2022-08-30T06:39:12.917Z,79.88
2022-08-30T06:40:18.580Z,79.32
2022-08-30T06:41:24.308Z,79.57
2022-08-30T06:42:32.401Z,79.37
2022-08-30T06:43:35.969Z,79.15
2022-08-30T06:44:40.772Z,78.53
2022-08-30T06:45:51.365Z,77.94
2022-08-30T06:46:56.049Z,77.54
2022-08-30T06:47:59.496Z,77.34
2022-08-30T06:49:04.851Z,76.51
2022-08-30T06:50:11.948Z,76.21
2022-08-30T06:51:15.893Z,76.03
2022-08-30T06:52:21.333Z,75.27
2022-08-30T06:53:27.486Z,74.57
2022-08-30T06:54:32.107Z,74.31
2022-08-30T06:55:35.346Z,74.29
2022-08-30T06:56:40.207Z,73.55
2022-08-30T06:57:46.175Z,73.32
2022-08-30T06:58:51.171Z,72.99
2022-08-30T06:59:57.465Z,71.88
2022-08-30T07:01:00.638Z,72.11
2022-08-30T07:02:05.306Z,71.94
2022-08-30T07:03:08.937Z,71.73
2022-08-30T07:04:13.287Z,71.53
2022-08-30T07:05:19.077Z,70.81
2022-08-30T07:06:24.605Z,70.74
2022-08-30T07:07:27.906Z,70.25
2022-08-30T07:08:35.456Z,70.08
2022-08-30T07:09:43.483Z,69.83
2022-08-30T07:10:48.503Z,69.39
2022-08-30T07:11:55.779Z,68.53
2022-08-30T07:12:59.179Z,68.47
2022-08-30T07:14:03.907Z,68.09
2022-08-30T07:15:08.336Z,68.05
2022-08-30T07:16:13.678Z,67.98
2022-08-30T07:17:35.711Z,67.55
2022-08-30T07:18:50.876Z,67.48
2022-08-30T07:19:55.723Z,67.63
2022-08-30T07:20:59.155Z,66.48
2022-08-30T07:22:03.660Z,66.51
2022-08-30T07:23:07.066Z,66.45
2022-08-30T07:24:13.856Z,65.86
2022-08-30T07:25:18.949Z,65.99
2022-08-30T07:26:25.910Z,65.53
2022-08-30T07:27:30.277Z,65.29
2022-08-30T07:28:34.462Z,64.74
2022-08-30T07:29:38.836Z,64.26
2022-08-30T07:30:42.343Z,63.92
2022-08-30T07:31:46.865Z,63.20
2022-08-30T07:32:50.062Z,63.11
2022-08-30T07:33:54.407Z,62.64
2022-08-30T07:34:57.856Z,62.84
2022-08-30T07:36:02.251Z,63.40
2022-08-30T07:37:05.694Z,63.33
2022-08-30T07:38:14.535Z,62.45
2022-08-30T07:39:20.574Z,63.06
2022-08-30T07:40:23.998Z,63.15
2022-08-30T07:41:30.628Z,63.27
2022-08-30T07:42:33.902Z,63.46
2022-08-30T07:43:38.617Z,62.40
2022-08-30T07:44:42.845Z,62.63
2022-08-30T07:45:46.055Z,62.46
2022-08-30T07:46:50.592Z,62.40
2022-08-30T07:47:53.707Z,62.71
2022-08-30T07:48:57.814Z,62.29
2022-08-30T07:50:01.467Z,61.24
2022-08-30T07:51:06.505Z,62.18
2022-08-30T07:52:09.715Z,62.95
2022-08-30T07:53:14.127Z,62.47
2022-08-30T07:54:18.767Z,62.11
2022-08-30T07:55:23.148Z,61.25
2022-08-30T07:56:26.721Z,60.75
2022-08-30T07:57:33.779Z,60.75
2022-08-30T07:58:38.516Z,59.97
2022-08-30T07:59:42.779Z,59.24
2022-08-30T08:00:46.007Z,59.98
2022-08-30T08:01:50.239Z,59.12
2022-08-30T08:02:55.494Z,58.86
2022-08-30T08:03:59.742Z,58.68
2022-08-30T08:05:02.973Z,58.61
2022-08-30T08:06:08.323Z,58.46
2022-08-30T08:07:11.788Z,58.44
2022-08-30T08:08:16.265Z,58.11
2022-08-30T08:09:20.867Z,58.44
2022-08-30T08:10:25.035Z,58.05
2022-08-30T08:11:33.464Z,58.53
2022-08-30T08:12:36.965Z,58.16
2022-08-30T08:13:53.779Z,58.01
2022-08-30T08:14:58.655Z,58.93
2022-08-30T08:16:01.859Z,59.13
2022-08-30T08:17:06.347Z,58.73
2022-08-30T08:18:10.737Z,59.31
2022-08-30T08:19:14.968Z,58.99
2022-08-30T08:20:18.183Z,58.90
2022-08-30T08:21:22.624Z,57.86
2022-08-30T08:22:25.987Z,57.53
2022-08-30T08:23:30.819Z,57.56
2022-08-30T08:24:36.710Z,57.05
2022-08-30T08:25:42.135Z,56.42
2022-08-30T08:26:46.308Z,56.96
2022-08-30T08:27:51.015Z,56.64
2022-08-30T08:28:55.268Z,56.24
2022-08-30T08:29:58.379Z,56.23
2022-08-30T08:31:02.662Z,56.08
2022-08-30T08:32:06.039Z,56.17
2022-08-30T08:33:10.864Z,56.46
2022-08-30T08:34:15.421Z,56.89
2022-08-30T08:35:18.747Z,57.20
2022-08-30T08:36:22.787Z,56.77
2022-08-30T08:37:28.158Z,56.81
2022-08-30T08:38:31.300Z,56.49
2022-08-30T08:39:37.321Z,56.23
2022-08-30T08:40:47.438Z,54.51
2022-08-30T08:41:56.197Z,54.75
2022-08-30T08:43:03.904Z,54.43
2022-08-30T08:44:12.528Z,54.26
2022-08-30T08:45:21.652Z,53.88
2022-08-30T08:46:32.856Z,53.81
2022-08-30T08:47:39.427Z,54.32
2022-08-30T08:48:59.909Z,54.71
2022-08-30T08:50:08.797Z,55.29
2022-08-30T08:51:32.029Z,55.92
2022-08-30T08:52:58.636Z,56.11
2022-08-30T08:54:06.629Z,56.35
2022-08-30T08:55:15.590Z,55.26
2022-08-30T08:56:19.962Z,55.25
2022-08-30T08:57:24.873Z,54.54
2022-08-30T08:58:30.707Z,54.34
2022-08-30T08:59:35.333Z,53.92
2022-08-30T09:00:38.902Z,53.18
2022-08-30T09:01:43.202Z,53.08
2022-08-30T09:02:50.628Z,53.42
2022-08-30T09:03:57.886Z,52.93
2022-08-30T09:05:04.243Z,53.06
2022-08-30T09:06:28.068Z,52.63
2022-08-30T09:07:34.842Z,53.29
2022-08-30T09:08:37.996Z,53.08
2022-08-30T09:09:42.788Z,53.44
2022-08-30T09:10:52.534Z,53.58
2022-08-30T09:11:56.605Z,53.11
2022-08-30T09:13:00.832Z,52.41
2022-08-30T09:14:11.954Z,53.06
2022-08-30T09:15:20.206Z,52.29
2022-08-30T09:16:46.966Z,50.67
2022-08-30T09:17:54.837Z,51.71
2022-08-30T09:18:57.815Z,51.86
2022-08-30T09:20:02.781Z,51.72
2022-08-30T09:21:07.246Z,51.67
2022-08-30T09:22:22.865Z,51.73
2022-08-30T09:23:32.657Z,51.69
2022-08-30T09:24:40.705Z,51.36
2022-08-30T09:25:53.577Z,50.69
2022-08-30T09:26:56.696Z,51.26
2022-08-30T09:28:11.655Z,50.34
2022-08-30T09:29:17.797Z,50.63
2022-08-30T09:30:25.913Z,50.94
2022-08-30T09:31:32.721Z,50.08
2022-08-30T09:32:40.448Z,50.03
2022-08-30T09:33:55.757Z,49.76
2022-08-30T09:35:00.468Z,49.95
2022-08-30T09:36:14.536Z,49.71
2022-08-30T09:37:27.119Z,50.25
2022-08-30T09:38:34.418Z,50.75
2022-08-30T09:39:38.313Z,50.81
2022-08-30T09:40:44.070Z,50.64
2022-08-30T09:41:50.597Z,51.71
2022-08-30T09:43:02.829Z,51.95
2022-08-30T09:44:12.706Z,51.66
2022-08-30T09:45:20.615Z,52.31
2022-08-30T09:46:26.176Z,51.96
2022-08-30T09:47:31.904Z,52.12
2022-08-30T09:48:38.335Z,51.63
2022-08-30T09:49:44.896Z,51.17
2022-08-30T09:50:50.257Z,50.36
2022-08-30T09:52:12.515Z,49.88
2022-08-30T09:53:23.472Z,50.61
2022-08-30T09:54:34.942Z,50.37
2022-08-30T09:55:51.826Z,50.75
2022-08-30T09:57:11.626Z,51.20
2022-08-30T09:58:31.349Z,51.72
2022-08-30T09:59:40.625Z,52.32
2022-08-30T10:00:49.353Z,52.32
2022-08-30T10:01:57.212Z,52.93
2022-08-30T10:03:35.318Z,53.34
2022-08-30T10:04:44.855Z,53.35
2022-08-30T10:05:57.974Z,52.81
2022-08-30T10:07:06.538Z,52.49
2022-08-30T10:08:14.744Z,52.96
2022-08-30T10:09:24.927Z,53.18
2022-08-30T10:10:32.301Z,52.00
2022-08-30T10:11:44.039Z,51.34
2022-08-30T10:12:56.734Z,50.84
2022-08-30T10:14:36.847Z,49.99
2022-08-30T10:15:43.265Z,50.10
2022-08-30T10:16:51.715Z,48.96
2022-08-30T10:18:02.974Z,48.57
2022-08-30T10:19:15.624Z,48.10
2022-08-30T10:20:23.606Z,49.35
2022-08-30T10:21:34.006Z,48.96
2022-08-30T10:22:41.850Z,49.30
2022-08-30T10:23:47.983Z,49.25
2022-08-30T10:24:57.053Z,48.92
2022-08-30T10:26:12.530Z,47.58
2022-08-30T10:27:20.147Z,46.71
2022-08-30T10:28:31.506Z,46.30
2022-08-30T10:29:42.295Z,46.81
2022-08-30T10:30:51.776Z,46.77
2022-08-30T10:31:59.016Z,46.12
2022-08-30T10:33:07.773Z,46.76
2022-08-30T10:34:15.059Z,46.20
2022-08-30T10:35:22.615Z,46.24
2022-08-30T10:36:31.461Z,47.00
2022-08-30T10:37:39.537Z,47.17
2022-08-30T10:38:48.086Z,47.71
2022-08-30T10:39:53.065Z,47.91
2022-08-30T10:41:13.719Z,48.45
2022-08-30T10:42:22.899Z,49.07
2022-08-30T10:43:39.300Z,49.07
2022-08-30T10:44:47.027Z,49.25
2022-08-30T10:45:51.726Z,49.73
2022-08-30T10:47:08.517Z,48.43
2022-08-30T10:48:19.308Z,49.00
2022-08-30T10:49:27.105Z,49.03
2022-08-30T10:50:38.452Z,48.58
2022-08-30T10:51:49.706Z,47.89
2022-08-30T10:52:58.547Z,47.72
2022-08-30T10:54:11.396Z,48.10
2022-08-30T10:55:22.503Z,48.02
2022-08-30T10:56:29.658Z,47.83
2022-08-30T10:57:33.788Z,48.18
2022-08-30T10:58:40.273Z,47.47
2022-08-30T10:59:48.365Z,47.85
2022-08-30T11:01:04.318Z,47.18
2022-08-30T11:02:24.949Z,47.30
2022-08-30T11:03:50.467Z,47.39
2022-08-30T11:05:13.847Z,46.89
2022-08-30T11:06:23.928Z,47.03
2022-08-30T11:07:36.016Z,47.35
2022-08-30T11:09:16.820Z,46.54
2022-08-30T11:10:28.421Z,47.38
2022-08-30T11:11:44.386Z,46.94
2022-08-30T11:12:55.763Z,46.97
2022-08-30T11:14:05.421Z,46.28
2022-08-30T11:15:19.901Z,45.89
2022-08-30T11:16:36.616Z,46.60
2022-08-30T11:17:46.047Z,45.99
2022-08-30T11:18:52.083Z,45.84
2022-08-30T11:19:57.495Z,45.10
2022-08-30T11:21:28.377Z,44.91
2022-08-30T11:22:39.261Z,45.38
2022-08-30T11:23:42.757Z,44.67
2022-08-30T11:25:13.316Z,43.19
2022-08-30T11:26:52.689Z,43.14
2022-08-30T11:27:58.686Z,43.82
2022-08-30T11:29:09.045Z,42.94
2022-08-30T11:30:52.417Z,42.69
2022-08-30T11:31:56.351Z,43.45
2022-08-30T11:33:02.296Z,43.58
2022-08-30T11:34:06.469Z,42.90
2022-08-30T11:39:03.813Z,38.75
2022-08-30T11:40:14.255Z,40.90
2022-08-30T11:41:32.505Z,39.47
2022-08-30T11:42:42.866Z,40.57
2022-08-30T11:43:57.360Z,41.14
2022-08-30T11:45:38.795Z,42.39
2022-08-30T11:46:45.532Z,43.12
2022-08-30T11:47:51.156Z,43.19
2022-08-30T11:48:56.954Z,43.21
2022-08-30T11:50:09.885Z,43.19
2022-08-30T11:51:43.631Z,42.56
2022-08-30T11:52:53.328Z,42.10
2022-08-30T11:54:01.937Z,41.94
2022-08-30T11:55:42.354Z,40.50
2022-08-30T11:56:55.784Z,41.71
2022-08-30T11:58:11.553Z,41.72
2022-08-30T11:59:26.735Z,40.44
2022-08-30T12:00:35.015Z,41.61
2022-08-30T12:01:51.007Z,41.35
2022-08-30T12:03:00.358Z,40.77
2022-08-30T12:04:07.038Z,40.78
2022-08-30T12:05:51.647Z,40.05
2022-08-30T12:07:00.031Z,40.63
2022-08-30T12:08:05.020Z,40.45
2022-08-30T12:09:10.925Z,39.66
2022-08-30T12:10:24.805Z,35.68
2022-08-30T12:12:05.199Z,37.68
2022-08-30T12:13:09.965Z,39.03
2022-08-30T12:14:47.851Z,35.78
2022-08-30T12:16:00.995Z,37.60
2022-08-30T12:17:30.126Z,37.71
2022-08-30T12:18:46.333Z,37.46
2022-08-30T12:19:50.684Z,38.36
2022-08-30T12:20:55.372Z,38.07
2022-08-30T12:22:01.501Z,37.83
2022-08-30T12:23:19.816Z,37.89
2022-08-30T12:24:27.947Z,38.07
2022-08-30T12:25:34.107Z,38.21
2022-08-30T12:26:41.200Z,38.01
2022-08-30T12:27:44.995Z,38.30
2022-08-30T12:28:51.306Z,39.26
2022-08-30T12:29:56.774Z,39.18
2022-08-30T12:31:10.030Z,39.76
2022-08-30T12:32:19.465Z,39.91
2022-08-30T12:33:29.338Z,40.36
2022-08-30T12:34:39.166Z,41.21
2022-08-30T12:35:43.626Z,41.18
2022-08-30T12:36:53.946Z,41.59
2022-08-30T12:38:00.267Z,41.02
2022-08-30T12:39:13.723Z,39.33
2022-08-30T12:40:21.170Z,39.86
2022-08-30T12:41:27.397Z,39.93
2022-08-30T12:42:33.379Z,39.63
2022-08-30T12:43:41.598Z,39.82
2022-08-30T12:44:45.539Z,38.92
2022-08-30T12:45:51.407Z,38.40
2022-08-30T12:46:59.783Z,38.74
2022-08-30T12:48:06.096Z,38.31
2022-08-30T12:49:11.617Z,37.77
2022-08-30T12:50:20.083Z,37.98
2022-08-30T12:51:38.309Z,37.29
2022-08-30T12:52:45.537Z,38.15
2022-08-30T12:53:51.340Z,37.77
2022-08-30T12:54:56.821Z,37.77
2022-08-30T12:56:02.581Z,38.08
2022-08-30T12:57:25.658Z,37.66
2022-08-30T12:58:37.935Z,37.60
2022-08-30T12:59:59.206Z,37.05
2022-08-30T13:01:18.552Z,36.42
2022-08-30T13:02:23.558Z,37.90
2022-08-30T13:03:34.268Z,37.67
2022-08-30T13:04:37.599Z,37.60
2022-08-30T13:05:52.818Z,36.07
2022-08-30T13:06:58.687Z,37.30
2022-08-30T13:08:27.777Z,36.52
2022-08-30T13:09:34.177Z,37.23
2022-08-30T13:10:38.925Z,37.17
2022-08-30T13:11:49.014Z,36.94
2022-08-30T13:13:02.125Z,37.12
2022-08-30T13:14:36.846Z,36.39
2022-08-30T13:15:42.821Z,37.47
2022-08-30T13:16:47.182Z,37.54
2022-08-30T13:18:13.386Z,36.09
2022-08-30T13:19:32.826Z,37.48
2022-08-30T13:20:35.975Z,37.44
2022-08-30T13:21:49.221Z,37.35
2022-08-30T13:23:06.175Z,37.14
2022-08-30T13:24:10.275Z,37.50
2022-08-30T13:25:13.382Z,37.30
2022-08-30T13:26:23.198Z,37.75
2022-08-30T13:27:27.478Z,37.65
2022-08-30T13:28:31.582Z,37.54
2022-08-30T13:29:35.877Z,37.00
2022-08-30T13:30:39.967Z,36.93
2022-08-30T13:31:44.145Z,36.93
2022-08-30T13:32:47.235Z,36.66
2022-08-30T13:33:53.345Z,36.93
2022-08-30T13:34:57.385Z,37.28
2022-08-30T13:36:00.836Z,37.92
2022-08-30T13:37:44.242Z,38.31
2022-08-30T13:38:32.024Z,38.48
2022-08-30T13:39:35.243Z,38.29
2022-08-30T13:40:41.369Z,38.26
2022-08-30T13:41:46.073Z,38.27
2022-08-30T13:42:50.513Z,38.92
2022-08-30T13:44:11.432Z,39.32
2022-08-30T13:46:53.345Z,39.79
2022-08-30T13:47:58.667Z,40.42
2022-08-30T13:49:04.987Z,41.28
2022-08-30T13:50:10.045Z,41.85
2022-08-30T13:51:13.416Z,42.37
2022-08-30T13:52:22.915Z,43.09
2022-08-30T13:54:51.274Z,42.66
2022-08-30T13:55:54.551Z,42.18
2022-08-30T13:56:58.921Z,42.34
2022-08-30T13:58:03.300Z,43.45
2022-08-30T13:59:06.656Z,43.24
2022-08-30T14:00:18.052Z,43.30
2022-08-30T14:01:21.802Z,42.73
2022-08-30T14:02:26.179Z,42.32
2022-08-30T14:03:31.454Z,41.34
2022-08-30T14:04:35.048Z,41.29
2022-08-30T14:05:50.110Z,40.21
2022-08-30T14:09:47.767Z,39.21
2022-08-30T14:10:51.946Z,38.77
2022-08-30T14:11:54.996Z,38.40
2022-08-30T14:13:07.926Z,38.26
2022-08-30T14:14:22.327Z,38.32
2022-08-30T14:15:35.378Z,38.36
2022-08-30T14:16:45.111Z,38.27
2022-08-30T14:17:48.450Z,38.41
2022-08-30T14:18:52.595Z,38.39
2022-08-30T14:19:56.862Z,38.13
2022-08-30T14:21:00.535Z,38.54
2022-08-30T14:22:04.746Z,38.52
2022-08-30T14:23:10.143Z,38.69
2022-08-30T14:24:16.085Z,38.50
2022-08-30T14:25:23.253Z,38.65
2022-08-30T14:26:32.808Z,38.31
2022-08-30T14:27:37.705Z,38.11
2022-08-30T14:28:42.224Z,37.52
2022-08-30T14:29:47.277Z,37.08
2022-08-30T14:30:50.544Z,36.77
2022-08-30T14:31:54.967Z,36.80
2022-08-30T14:32:58.094Z,36.60
2022-08-30T14:34:04.245Z,36.54
2022-08-30T14:35:10.096Z,36.40
2022-08-30T14:36:15.852Z,36.44
2022-08-30T14:37:20.306Z,36.87
2022-08-30T14:38:23.312Z,36.62
2022-08-30T14:39:29.089Z,36.66
2022-08-30T14:40:32.257Z,36.63
2022-08-30T14:41:40.116Z,36.85
2022-08-30T14:42:47.377Z,36.85
2022-08-30T14:43:51.453Z,36.60
2022-08-30T14:44:56.804Z,36.42
2022-08-30T14:46:00.230Z,36.29
2022-08-30T14:47:04.615Z,36.71
2022-08-30T14:48:11.707Z,36.73
2022-08-30T14:49:20.057Z,36.64
2022-08-30T14:50:23.266Z,36.68
2022-08-30T14:51:27.297Z,36.70
2022-08-30T14:52:31.914Z,36.96
2022-08-30T14:53:36.203Z,37.27
2022-08-30T14:54:42.417Z,37.68
2022-08-30T14:55:45.566Z,38.33
2022-08-30T14:56:49.797Z,38.75
2022-08-30T14:57:53.005Z,39.16
2022-08-30T14:59:00.784Z,39.75
2022-08-30T15:00:07.441Z,39.43
2022-08-30T15:01:12.515Z,39.04
2022-08-30T15:02:16.838Z,38.91
2022-08-30T15:03:20.026Z,39.39
2022-08-30T15:04:24.267Z,39.24
2022-08-30T15:05:28.411Z,39.60
2022-08-30T15:06:32.933Z,39.58
2022-08-30T15:07:36.269Z,39.64
2022-08-30T15:08:40.983Z,40.04
2022-08-30T15:09:46.611Z,40.65
2022-08-30T15:10:49.664Z,40.88
2022-08-30T15:11:58.777Z,40.94
2022-08-30T15:13:05.085Z,40.60
2022-08-30T15:14:12.847Z,40.79
2022-08-30T15:15:21.697Z,41.06
2022-08-30T15:16:28.252Z,41.76
2022-08-30T15:17:31.420Z,41.91
2022-08-30T15:18:35.945Z,42.22
2022-08-30T15:19:40.847Z,42.62
2022-08-30T15:20:48.034Z,43.20
2022-08-30T15:21:52.832Z,43.03
2022-08-30T15:22:55.906Z,43.62
2022-08-30T15:24:01.912Z,44.20
2022-08-30T15:25:07.593Z,44.25
2022-08-30T15:26:13.765Z,44.55
2022-08-30T15:27:17.996Z,45.17
2022-08-30T15:28:21.274Z,44.67
2022-08-30T15:29:25.418Z,44.97
2022-08-30T15:30:28.425Z,44.70
2022-08-30T15:31:33.061Z,44.77
2022-08-30T15:32:36.828Z,44.65
2022-08-30T15:33:41.427Z,44.52
2022-08-30T15:34:55.990Z,44.44
2022-08-30T15:36:02.268Z,44.63
2022-08-30T15:37:09.234Z,44.67
2022-08-30T15:38:14.666Z,45.07
2022-08-30T15:39:21.316Z,45.27
2022-08-30T15:40:30.080Z,46.03
2022-08-30T15:41:33.277Z,46.04
2022-08-30T15:42:42.322Z,46.26
2022-08-30T15:43:46.747Z,46.42
2022-08-30T15:44:51.551Z,46.67
2022-08-30T15:45:56.707Z,46.62
2022-08-30T15:47:01.270Z,46.64
2022-08-30T15:48:04.828Z,46.73
2022-08-30T15:49:10.717Z,47.03
2022-08-30T15:50:14.896Z,46.85
2022-08-30T15:51:18.645Z,47.15
2022-08-30T15:52:22.816Z,47.07
2022-08-30T15:53:25.795Z,47.24
2022-08-30T15:54:29.907Z,47.42
2022-08-30T15:55:34.459Z,47.70
2022-08-30T15:56:38.968Z,47.87